sensor_id;sensor_type;location;lat;lon;timestamp;temperature;humidity
16263;DHT22;8239;48.594;8.598;2024-02-16T00:01:59;6.80;99.90
16263;DHT22;8239;48.594;8.598;2024-02-16T00:04:26;6.80;99.90
16263;DHT22;8239;48.594;8.598;2024-02-16T00:06:53;6.90;99.90
16263;DHT22;8239;48.594;8.598;2024-02-16T00:09:21;6.90;99.90
16263;DHT22;8239;48.594;8.598;2024-02-16T00:11:49;6.90;99.90
16263;DHT22;8239;48.594;8.598;2024-02-16T00:14:18;6.90;99.90
16263;DHT22;8239;48.594;8.598;2024-02-16T00:16:45;6.80;99.90
16263;DHT22;8239;48.594;8.598;2024-02-16T00:19:12;6.80;99.90
16263;DHT22;8239;48.594;8.598;2024-02-16T00:21:39;6.80;99.90
16263;DHT22;8239;48.594;8.598;2024-02-16T00:24:07;6.80;99.90
16263;DHT22;8239;48.594;8.598;2024-02-16T00:26:34;6.80;99.90
16263;DHT22;8239;48.594;8.598;2024-02-16T00:29:03;6.80;99.90
16263;DHT22;8239;48.594;8.598;2024-02-16T00:31:30;6.90;99.90
16263;DHT22;8239;48.594;8.598;2024-02-16T00:33:57;6.90;99.90
16263;DHT22;8239;48.594;8.598;2024-02-16T00:36:25;6.90;99.90
16263;DHT22;8239;48.594;8.598;2024-02-16T00:38:52;7.00;99.90
16263;DHT22;8239;48.594;8.598;2024-02-16T00:41:19;7.10;99.90
16263;DHT22;8239;48.594;8.598;2024-02-16T00:43:46;7.10;99.90
16263;DHT22;8239;48.594;8.598;2024-02-16T00:46:15;7.10;99.90
16263;DHT22;8239;48.594;8.598;2024-02-16T00:48:42;7.20;99.90
16263;DHT22;8239;48.594;8.598;2024-02-16T00:51:09;7.30;99.90
16263;DHT22;8239;48.594;8.598;2024-02-16T00:53:36;7.20;99.90
16263;DHT22;8239;48.594;8.598;2024-02-16T00:56:03;7.30;99.90
16263;DHT22;8239;48.594;8.598;2024-02-16T00:58:30;7.20;99.90
16263;DHT22;8239;48.594;8.598;2024-02-16T01:00:57;7.20;99.90
16263;DHT22;8239;48.594;8.598;2024-02-16T01:03:25;7.20;99.90
16263;DHT22;8239;48.594;8.598;2024-02-16T01:05:52;7.10;99.90
16263;DHT22;8239;48.594;8.598;2024-02-16T01:08:19;7.10;99.90
16263;DHT22;8239;48.594;8.598;2024-02-16T01:10:48;7.00;99.90
16263;DHT22;8239;48.594;8.598;2024-02-16T01:13:15;7.00;99.90
16263;DHT22;8239;48.594;8.598;2024-02-16T01:15:42;6.90;99.90
16263;DHT22;8239;48.594;8.598;2024-02-16T01:18:10;6.90;99.90
16263;DHT22;8239;48.594;8.598;2024-02-16T01:20:38;6.80;99.90
16263;DHT22;8239;48.594;8.598;2024-02-16T01:23:06;6.80;99.90
16263;DHT22;8239;48.594;8.598;2024-02-16T01:25:33;6.90;99.90
16263;DHT22;8239;48.594;8.598;2024-02-16T01:28:00;6.90;99.90
16263;DHT22;8239;48.594;8.598;2024-02-16T01:30:27;6.80;99.90
16263;DHT22;8239;48.594;8.598;2024-02-16T01:32:54;6.80;99.90
16263;DHT22;8239;48.594;8.598;2024-02-16T01:35:21;6.90;99.90
16263;DHT22;8239;48.594;8.598;2024-02-16T01:37:49;6.90;99.90
16263;DHT22;8239;48.594;8.598;2024-02-16T01:40:16;6.90;99.90
16263;DHT22;8239;48.594;8.598;2024-02-16T01:42:43;7.00;99.90
16263;DHT22;8239;48.594;8.598;2024-02-16T01:45:10;7.10;99.90
16263;DHT22;8239;48.594;8.598;2024-02-16T01:47:39;7.10;99.90
16263;DHT22;8239;48.594;8.598;2024-02-16T01:50:09;7.10;99.90
16263;DHT22;8239;48.594;8.598;2024-02-16T01:52:36;7.10;99.90
16263;DHT22;8239;48.594;8.598;2024-02-16T01:55:05;7.10;99.90
16263;DHT22;8239;48.594;8.598;2024-02-16T01:57:34;7.10;99.90
16263;DHT22;8239;48.594;8.598;2024-02-16T02:00:01;7.10;99.90
16263;DHT22;8239;48.594;8.598;2024-02-16T02:02:29;7.10;99.90
16263;DHT22;8239;48.594;8.598;2024-02-16T02:04:56;7.10;99.90
16263;DHT22;8239;48.594;8.598;2024-02-16T02:07:25;7.10;99.90
16263;DHT22;8239;48.594;8.598;2024-02-16T02:09:53;7.10;99.90
16263;DHT22;8239;48.594;8.598;2024-02-16T02:12:21;7.10;99.90
16263;DHT22;8239;48.594;8.598;2024-02-16T02:14:49;7.00;99.90
16263;DHT22;8239;48.594;8.598;2024-02-16T02:17:17;7.10;99.90
16263;DHT22;8239;48.594;8.598;2024-02-16T02:19:44;7.10;99.90
16263;DHT22;8239;48.594;8.598;2024-02-16T02:22:15;7.10;99.90
16263;DHT22;8239;48.594;8.598;2024-02-16T02:24:42;7.10;99.90
16263;DHT22;8239;48.594;8.598;2024-02-16T02:27:09;7.10;99.90
16263;DHT22;8239;48.594;8.598;2024-02-16T02:29:37;7.00;99.90
16263;DHT22;8239;48.594;8.598;2024-02-16T02:32:04;7.00;99.90
16263;DHT22;8239;48.594;8.598;2024-02-16T02:34:31;7.00;99.90
16263;DHT22;8239;48.594;8.598;2024-02-16T02:36:58;7.00;99.90
16263;DHT22;8239;48.594;8.598;2024-02-16T02:39:27;7.10;99.90
16263;DHT22;8239;48.594;8.598;2024-02-16T02:41:54;7.10;99.90
16263;DHT22;8239;48.594;8.598;2024-02-16T02:44:23;7.10;99.90
16263;DHT22;8239;48.594;8.598;2024-02-16T02:46:50;7.10;99.90
16263;DHT22;8239;48.594;8.598;2024-02-16T02:49:17;7.10;99.90
16263;DHT22;8239;48.594;8.598;2024-02-16T02:51:44;7.10;99.90
16263;DHT22;8239;48.594;8.598;2024-02-16T02:54:11;7.00;99.90
16263;DHT22;8239;48.594;8.598;2024-02-16T02:56:39;7.00;99.90
16263;DHT22;8239;48.594;8.598;2024-02-16T02:59:06;6.80;99.90
16263;DHT22;8239;48.594;8.598;2024-02-16T03:01:34;6.80;99.90
16263;DHT22;8239;48.594;8.598;2024-02-16T03:04:01;6.90;99.90
16263;DHT22;8239;48.594;8.598;2024-02-16T03:06:28;6.90;99.90
16263;DHT22;8239;48.594;8.598;2024-02-16T03:08:55;6.90;99.90
16263;DHT22;8239;48.594;8.598;2024-02-16T03:11:22;6.70;99.90
16263;DHT22;8239;48.594;8.598;2024-02-16T03:13:50;6.60;99.90
16263;DHT22;8239;48.594;8.598;2024-02-16T03:16:17;6.50;99.90
16263;DHT22;8239;48.594;8.598;2024-02-16T03:18:44;6.50;99.90
16263;DHT22;8239;48.594;8.598;2024-02-16T03:21:13;6.50;99.90
16263;DHT22;8239;48.594;8.598;2024-02-16T03:23:42;6.50;99.90
16263;DHT22;8239;48.594;8.598;2024-02-16T03:26:14;6.60;99.90
16263;DHT22;8239;48.594;8.598;2024-02-16T03:28:43;6.50;99.90
16263;DHT22;8239;48.594;8.598;2024-02-16T03:31:16;6.50;99.90
16263;DHT22;8239;48.594;8.598;2024-02-16T03:33:43;6.60;99.90
16263;DHT22;8239;48.594;8.598;2024-02-16T03:36:10;6.40;99.90
16263;DHT22;8239;48.594;8.598;2024-02-16T03:38:41;6.40;99.90
16263;DHT22;8239;48.594;8.598;2024-02-16T03:41:08;6.40;99.90
16263;DHT22;8239;48.594;8.598;2024-02-16T03:43:38;6.40;99.90
16263;DHT22;8239;48.594;8.598;2024-02-16T03:46:05;6.40;99.90
16263;DHT22;8239;48.594;8.598;2024-02-16T03:48:33;6.40;99.90
16263;DHT22;8239;48.594;8.598;2024-02-16T03:51:00;6.40;99.90
16263;DHT22;8239;48.594;8.598;2024-02-16T03:53:28;6.40;99.90
16263;DHT22;8239;48.594;8.598;2024-02-16T03:55:56;6.50;99.90
16263;DHT22;8239;48.594;8.598;2024-02-16T03:58:23;6.40;99.90
16263;DHT22;8239;48.594;8.598;2024-02-16T04:00:50;6.40;99.90
16263;DHT22;8239;48.594;8.598;2024-02-16T04:03:18;6.50;99.90
16263;DHT22;8239;48.594;8.598;2024-02-16T04:05:47;6.40;99.90
16263;DHT22;8239;48.594;8.598;2024-02-16T04:08:13;6.40;99.90
16263;DHT22;8239;48.594;8.598;2024-02-16T04:10:40;6.40;99.90
16263;DHT22;8239;48.594;8.598;2024-02-16T04:13:07;6.40;99.90
16263;DHT22;8239;48.594;8.598;2024-02-16T04:15:34;6.40;99.90
16263;DHT22;8239;48.594;8.598;2024-02-16T04:18:01;6.40;99.90
16263;DHT22;8239;48.594;8.598;2024-02-16T04:20:28;6.40;99.90
16263;DHT22;8239;48.594;8.598;2024-02-16T04:22:57;6.40;99.90
16263;DHT22;8239;48.594;8.598;2024-02-16T04:25:26;6.40;99.90
16263;DHT22;8239;48.594;8.598;2024-02-16T04:27:53;6.40;99.90
16263;DHT22;8239;48.594;8.598;2024-02-16T04:30:20;6.40;99.90
16263;DHT22;8239;48.594;8.598;2024-02-16T04:32:47;6.40;99.90
16263;DHT22;8239;48.594;8.598;2024-02-16T04:35:16;6.30;99.90
16263;DHT22;8239;48.594;8.598;2024-02-16T04:37:43;6.30;99.90
16263;DHT22;8239;48.594;8.598;2024-02-16T04:40:12;6.30;99.90
16263;DHT22;8239;48.594;8.598;2024-02-16T04:42:39;6.20;99.90
16263;DHT22;8239;48.594;8.598;2024-02-16T04:45:07;6.20;99.90
16263;DHT22;8239;48.594;8.598;2024-02-16T04:47:34;6.20;99.90
16263;DHT22;8239;48.594;8.598;2024-02-16T04:50:01;6.20;99.90
16263;DHT22;8239;48.594;8.598;2024-02-16T04:52:28;6.30;99.90
16263;DHT22;8239;48.594;8.598;2024-02-16T04:54:55;6.20;99.90
16263;DHT22;8239;48.594;8.598;2024-02-16T04:57:24;6.30;99.90
16263;DHT22;8239;48.594;8.598;2024-02-16T04:59:50;6.20;99.90
16263;DHT22;8239;48.594;8.598;2024-02-16T05:02:17;6.10;99.90
16263;DHT22;8239;48.594;8.598;2024-02-16T05:04:44;6.20;99.90
16263;DHT22;8239;48.594;8.598;2024-02-16T05:07:11;6.10;99.90
16263;DHT22;8239;48.594;8.598;2024-02-16T05:09:38;6.10;99.90
16263;DHT22;8239;48.594;8.598;2024-02-16T05:12:06;6.10;99.90
16263;DHT22;8239;48.594;8.598;2024-02-16T05:14:35;6.00;99.90
16263;DHT22;8239;48.594;8.598;2024-02-16T05:17:01;5.90;99.90
16263;DHT22;8239;48.594;8.598;2024-02-16T05:19:32;6.00;99.90
16263;DHT22;8239;48.594;8.598;2024-02-16T05:21:59;6.00;99.90
16263;DHT22;8239;48.594;8.598;2024-02-16T05:24:26;6.00;99.90
16263;DHT22;8239;48.594;8.598;2024-02-16T05:26:53;6.00;99.90
16263;DHT22;8239;48.594;8.598;2024-02-16T05:29:21;6.00;99.90
16263;DHT22;8239;48.594;8.598;2024-02-16T05:31:52;6.00;99.90
16263;DHT22;8239;48.594;8.598;2024-02-16T05:34:19;6.00;99.90
16263;DHT22;8239;48.594;8.598;2024-02-16T05:36:46;6.10;99.90
16263;DHT22;8239;48.594;8.598;2024-02-16T05:39:13;6.10;99.90
16263;DHT22;8239;48.594;8.598;2024-02-16T05:41:52;6.00;99.90
16263;DHT22;8239;48.594;8.598;2024-02-16T05:44:19;6.00;99.90
16263;DHT22;8239;48.594;8.598;2024-02-16T05:46:46;6.00;99.90
16263;DHT22;8239;48.594;8.598;2024-02-16T05:49:15;6.10;99.90
16263;DHT22;8239;48.594;8.598;2024-02-16T05:51:42;6.10;99.90
16263;DHT22;8239;48.594;8.598;2024-02-16T05:54:26;6.10;99.90
16263;DHT22;8239;48.594;8.598;2024-02-16T05:56:53;6.10;99.90
16263;DHT22;8239;48.594;8.598;2024-02-16T05:59:20;6.00;99.90
16263;DHT22;8239;48.594;8.598;2024-02-16T06:01:47;6.10;99.90
16263;DHT22;8239;48.594;8.598;2024-02-16T06:04:16;6.10;99.90
16263;DHT22;8239;48.594;8.598;2024-02-16T06:06:43;6.20;99.90
16263;DHT22;8239;48.594;8.598;2024-02-16T06:09:10;6.20;99.90
16263;DHT22;8239;48.594;8.598;2024-02-16T06:11:37;6.10;99.90
16263;DHT22;8239;48.594;8.598;2024-02-16T06:14:04;6.10;99.90
16263;DHT22;8239;48.594;8.598;2024-02-16T06:16:31;6.10;99.90
16263;DHT22;8239;48.594;8.598;2024-02-16T06:18:59;6.10;99.90
16263;DHT22;8239;48.594;8.598;2024-02-16T06:21:27;6.10;99.90
16263;DHT22;8239;48.594;8.598;2024-02-16T06:23:54;6.10;99.90
16263;DHT22;8239;48.594;8.598;2024-02-16T06:26:21;6.10;99.90
16263;DHT22;8239;48.594;8.598;2024-02-16T06:28:48;6.10;99.90
16263;DHT22;8239;48.594;8.598;2024-02-16T06:31:15;6.10;99.90
16263;DHT22;8239;48.594;8.598;2024-02-16T06:33:42;6.10;99.90
16263;DHT22;8239;48.594;8.598;2024-02-16T06:36:09;6.20;99.90
16263;DHT22;8239;48.594;8.598;2024-02-16T06:38:37;6.10;99.90
16263;DHT22;8239;48.594;8.598;2024-02-16T06:41:04;6.10;99.90
16263;DHT22;8239;48.594;8.598;2024-02-16T06:43:31;6.20;99.90
16263;DHT22;8239;48.594;8.598;2024-02-16T06:45:58;6.20;99.90
16263;DHT22;8239;48.594;8.598;2024-02-16T06:48:25;6.10;99.90
16263;DHT22;8239;48.594;8.598;2024-02-16T06:50:51;6.40;99.90
16263;DHT22;8239;48.594;8.598;2024-02-16T06:53:19;6.50;99.90
16263;DHT22;8239;48.594;8.598;2024-02-16T06:55:47;6.70;99.90
16263;DHT22;8239;48.594;8.598;2024-02-16T06:58:14;6.80;99.90
16263;DHT22;8239;48.594;8.598;2024-02-16T07:00:41;6.80;99.90
16263;DHT22;8239;48.594;8.598;2024-02-16T07:03:09;6.80;99.90
16263;DHT22;8239;48.594;8.598;2024-02-16T07:05:36;6.90;99.90
16263;DHT22;8239;48.594;8.598;2024-02-16T07:08:03;7.00;99.90
16263;DHT22;8239;48.594;8.598;2024-02-16T07:10:32;6.90;99.90
16263;DHT22;8239;48.594;8.598;2024-02-16T07:13:00;7.10;99.90
16263;DHT22;8239;48.594;8.598;2024-02-16T07:15:27;7.10;99.90
16263;DHT22;8239;48.594;8.598;2024-02-16T07:17:54;7.20;99.90
16263;DHT22;8239;48.594;8.598;2024-02-16T07:20:22;7.40;99.90
16263;DHT22;8239;48.594;8.598;2024-02-16T07:22:49;7.50;99.90
16263;DHT22;8239;48.594;8.598;2024-02-16T07:25:17;7.70;99.90
16263;DHT22;8239;48.594;8.598;2024-02-16T07:27:44;8.00;99.90
16263;DHT22;8239;48.594;8.598;2024-02-16T07:30:13;8.30;99.90
16263;DHT22;8239;48.594;8.598;2024-02-16T07:32:40;8.60;99.90
16263;DHT22;8239;48.594;8.598;2024-02-16T07:35:07;8.90;99.90
16263;DHT22;8239;48.594;8.598;2024-02-16T07:37:35;9.30;99.90
16263;DHT22;8239;48.594;8.598;2024-02-16T07:40:03;9.60;99.90
16263;DHT22;8239;48.594;8.598;2024-02-16T07:42:31;10.10;99.90
16263;DHT22;8239;48.594;8.598;2024-02-16T07:44:58;10.50;99.90
16263;DHT22;8239;48.594;8.598;2024-02-16T07:47:27;10.70;99.90
16263;DHT22;8239;48.594;8.598;2024-02-16T07:49:54;10.90;99.90
16263;DHT22;8239;48.594;8.598;2024-02-16T07:52:20;11.20;99.90
16263;DHT22;8239;48.594;8.598;2024-02-16T07:54:47;11.40;99.90
16263;DHT22;8239;48.594;8.598;2024-02-16T07:57:17;11.60;99.90
16263;DHT22;8239;48.594;8.598;2024-02-16T07:59:44;11.90;99.90
16263;DHT22;8239;48.594;8.598;2024-02-16T08:02:10;12.50;99.90
16263;DHT22;8239;48.594;8.598;2024-02-16T08:04:42;12.90;98.80
16263;DHT22;8239;48.594;8.598;2024-02-16T08:07:09;13.50;97.30
16263;DHT22;8239;48.594;8.598;2024-02-16T08:09:36;14.00;95.10
16263;DHT22;8239;48.594;8.598;2024-02-16T08:12:04;14.30;93.90
16263;DHT22;8239;48.594;8.598;2024-02-16T08:14:32;14.60;93.10
16263;DHT22;8239;48.594;8.598;2024-02-16T08:16:59;15.00;90.80
16263;DHT22;8239;48.594;8.598;2024-02-16T08:19:32;15.80;88.20
16263;DHT22;8239;48.594;8.598;2024-02-16T08:22:00;16.50;83.50
16263;DHT22;8239;48.594;8.598;2024-02-16T08:24:27;17.00;79.70
16263;DHT22;8239;48.594;8.598;2024-02-16T08:26:54;17.40;78.20
16263;DHT22;8239;48.594;8.598;2024-02-16T08:29:22;17.90;74.30
16263;DHT22;8239;48.594;8.598;2024-02-16T08:31:49;18.70;73.00
16263;DHT22;8239;48.594;8.598;2024-02-16T08:34:16;19.80;69.10
16263;DHT22;8239;48.594;8.598;2024-02-16T08:36:44;21.10;64.60
16263;DHT22;8239;48.594;8.598;2024-02-16T08:39:12;22.10;60.20
16263;DHT22;8239;48.594;8.598;2024-02-16T08:41:40;22.90;58.30
16263;DHT22;8239;48.594;8.598;2024-02-16T08:44:07;23.60;55.60
16263;DHT22;8239;48.594;8.598;2024-02-16T08:46:34;24.50;53.20
16263;DHT22;8239;48.594;8.598;2024-02-16T08:49:02;25.60;50.20
16263;DHT22;8239;48.594;8.598;2024-02-16T08:51:29;26.50;47.20
16263;DHT22;8239;48.594;8.598;2024-02-16T08:53:58;25.70;47.60
16263;DHT22;8239;48.594;8.598;2024-02-16T08:56:26;26.30;47.80
16263;DHT22;8239;48.594;8.598;2024-02-16T08:58:53;27.10;46.40
16263;DHT22;8239;48.594;8.598;2024-02-16T09:01:30;26.70;45.80
16263;DHT22;8239;48.594;8.598;2024-02-16T09:03:57;26.60;46.50
16263;DHT22;8239;48.594;8.598;2024-02-16T09:06:24;26.20;46.40
16263;DHT22;8239;48.594;8.598;2024-02-16T09:08:51;25.50;47.20
16263;DHT22;8239;48.594;8.598;2024-02-16T09:11:22;25.10;48.00
16263;DHT22;8239;48.594;8.598;2024-02-16T09:13:54;24.70;49.20
16263;DHT22;8239;48.594;8.598;2024-02-16T09:16:21;24.40;49.80
16263;DHT22;8239;48.594;8.598;2024-02-16T09:18:49;24.10;49.50
16263;DHT22;8239;48.594;8.598;2024-02-16T09:21:16;23.40;49.80
16263;DHT22;8239;48.594;8.598;2024-02-16T09:23:43;22.60;50.60
16263;DHT22;8239;48.594;8.598;2024-02-16T09:26:10;21.70;52.80
16263;DHT22;8239;48.594;8.598;2024-02-16T09:28:40;20.80;54.80
16263;DHT22;8239;48.594;8.598;2024-02-16T09:31:09;20.10;56.90
16263;DHT22;8239;48.594;8.598;2024-02-16T09:33:36;19.40;58.50
16263;DHT22;8239;48.594;8.598;2024-02-16T09:36:03;18.80;60.20
16263;DHT22;8239;48.594;8.598;2024-02-16T09:38:30;18.20;62.20
16263;DHT22;8239;48.594;8.598;2024-02-16T09:40:57;17.50;62.70
16263;DHT22;8239;48.594;8.598;2024-02-16T09:43:25;16.60;64.80
16263;DHT22;8239;48.594;8.598;2024-02-16T09:45:54;16.10;66.80
16263;DHT22;8239;48.594;8.598;2024-02-16T09:48:23;15.80;69.50
16263;DHT22;8239;48.594;8.598;2024-02-16T09:50:51;15.60;71.80
16263;DHT22;8239;48.594;8.598;2024-02-16T09:53:20;15.40;72.90
16263;DHT22;8239;48.594;8.598;2024-02-16T09:55:49;15.30;74.10
16263;DHT22;8239;48.594;8.598;2024-02-16T09:58:16;15.10;75.10
16263;DHT22;8239;48.594;8.598;2024-02-16T10:00:48;15.00;75.70
16263;DHT22;8239;48.594;8.598;2024-02-16T10:03:24;15.00;76.10
16263;DHT22;8239;48.594;8.598;2024-02-16T10:05:52;14.70;77.30
16263;DHT22;8239;48.594;8.598;2024-02-16T10:08:19;14.50;79.10
16263;DHT22;8239;48.594;8.598;2024-02-16T10:10:46;14.60;80.60
16263;DHT22;8239;48.594;8.598;2024-02-16T10:13:15;14.80;81.20
16263;DHT22;8239;48.594;8.598;2024-02-16T10:15:42;15.20;80.40
16263;DHT22;8239;48.594;8.598;2024-02-16T10:18:10;15.70;80.40
16263;DHT22;8239;48.594;8.598;2024-02-16T10:20:39;16.40;79.60
16263;DHT22;8239;48.594;8.598;2024-02-16T10:23:08;17.40;76.10
16263;DHT22;8239;48.594;8.598;2024-02-16T10:25:36;18.90;71.40
16263;DHT22;8239;48.594;8.598;2024-02-16T10:28:05;20.70;65.30
16263;DHT22;8239;48.594;8.598;2024-02-16T10:30:35;22.10;59.50
16263;DHT22;8239;48.594;8.598;2024-02-16T10:33:03;23.30;57.10
16263;DHT22;8239;48.594;8.598;2024-02-16T10:35:31;24.90;54.40
16263;DHT22;8239;48.594;8.598;2024-02-16T10:38:02;26.40;51.40
16263;DHT22;8239;48.594;8.598;2024-02-16T10:40:33;26.80;47.80
16263;DHT22;8239;48.594;8.598;2024-02-16T10:43:03;27.00;46.60
16263;DHT22;8239;48.594;8.598;2024-02-16T10:45:33;27.50;47.60
16263;DHT22;8239;48.594;8.598;2024-02-16T10:48:00;28.00;45.40
16263;DHT22;8239;48.594;8.598;2024-02-16T10:50:27;27.90;43.60
16263;DHT22;8239;48.594;8.598;2024-02-16T10:52:55;27.50;44.70
16263;DHT22;8239;48.594;8.598;2024-02-16T10:55:25;26.70;45.70
16263;DHT22;8239;48.594;8.598;2024-02-16T10:57:52;26.00;46.80
16263;DHT22;8239;48.594;8.598;2024-02-16T11:00:21;26.00;47.60
16263;DHT22;8239;48.594;8.598;2024-02-16T11:02:54;26.30;46.40
16263;DHT22;8239;48.594;8.598;2024-02-16T11:05:34;26.80;45.70
16263;DHT22;8239;48.594;8.598;2024-02-16T11:08:02;27.80;44.10
16263;DHT22;8239;48.594;8.598;2024-02-16T11:10:31;28.70;42.60
16263;DHT22;8239;48.594;8.598;2024-02-16T11:13:02;29.50;41.90
16263;DHT22;8239;48.594;8.598;2024-02-16T11:15:30;29.10;40.70
16263;DHT22;8239;48.594;8.598;2024-02-16T11:17:59;28.90;42.20
16263;DHT22;8239;48.594;8.598;2024-02-16T11:20:27;29.10;41.70
16263;DHT22;8239;48.594;8.598;2024-02-16T11:23:04;28.80;41.00
16263;DHT22;8239;48.594;8.598;2024-02-16T11:25:32;28.90;41.60
16263;DHT22;8239;48.594;8.598;2024-02-16T11:27:59;29.40;41.90
16263;DHT22;8239;48.594;8.598;2024-02-16T11:30:26;29.90;40.80
16263;DHT22;8239;48.594;8.598;2024-02-16T11:32:53;30.10;40.60
16263;DHT22;8239;48.594;8.598;2024-02-16T11:35:20;30.10;40.40
16263;DHT22;8239;48.594;8.598;2024-02-16T11:37:47;28.80;40.30
16263;DHT22;8239;48.594;8.598;2024-02-16T11:40:14;27.50;42.50
16263;DHT22;8239;48.594;8.598;2024-02-16T11:42:43;26.00;45.20
16263;DHT22;8239;48.594;8.598;2024-02-16T11:45:12;24.40;47.20
16263;DHT22;8239;48.594;8.598;2024-02-16T11:47:39;23.40;48.90
16263;DHT22;8239;48.594;8.598;2024-02-16T11:50:07;22.80;51.60
16263;DHT22;8239;48.594;8.598;2024-02-16T11:52:36;22.30;51.40
16263;DHT22;8239;48.594;8.598;2024-02-16T11:55:08;21.40;52.30
16263;DHT22;8239;48.594;8.598;2024-02-16T11:57:35;20.50;54.40
16263;DHT22;8239;48.594;8.598;2024-02-16T12:00:06;19.70;56.10
16263;DHT22;8239;48.594;8.598;2024-02-16T12:02:36;19.30;58.00
16263;DHT22;8239;48.594;8.598;2024-02-16T12:05:03;19.40;58.90
16263;DHT22;8239;48.594;8.598;2024-02-16T12:07:31;19.80;59.10
16263;DHT22;8239;48.594;8.598;2024-02-16T12:10:00;19.90;57.20
16263;DHT22;8239;48.594;8.598;2024-02-16T12:12:27;19.40;57.70
16263;DHT22;8239;48.594;8.598;2024-02-16T12:14:55;19.30;57.90
16263;DHT22;8239;48.594;8.598;2024-02-16T12:17:23;19.10;58.80
16263;DHT22;8239;48.594;8.598;2024-02-16T12:19:51;19.20;59.50
16263;DHT22;8239;48.594;8.598;2024-02-16T12:22:19;19.70;59.70
16263;DHT22;8239;48.594;8.598;2024-02-16T12:24:46;20.30;58.70
16263;DHT22;8239;48.594;8.598;2024-02-16T12:27:12;20.90;57.40
16263;DHT22;8239;48.594;8.598;2024-02-16T12:29:40;21.20;55.80
16263;DHT22;8239;48.594;8.598;2024-02-16T12:32:07;21.20;55.40
16263;DHT22;8239;48.594;8.598;2024-02-16T12:34:37;21.00;55.00
16263;DHT22;8239;48.594;8.598;2024-02-16T12:37:05;20.70;56.60
16263;DHT22;8239;48.594;8.598;2024-02-16T12:39:34;20.60;56.90
16263;DHT22;8239;48.594;8.598;2024-02-16T12:42:01;20.20;56.40
16263;DHT22;8239;48.594;8.598;2024-02-16T12:44:28;19.90;57.50
16263;DHT22;8239;48.594;8.598;2024-02-16T12:46:56;19.80;58.00
16263;DHT22;8239;48.594;8.598;2024-02-16T12:49:22;19.70;57.90
16263;DHT22;8239;48.594;8.598;2024-02-16T12:51:51;19.60;59.40
16263;DHT22;8239;48.594;8.598;2024-02-16T12:54:18;19.50;59.80
16263;DHT22;8239;48.594;8.598;2024-02-16T12:56:45;19.60;59.80
16263;DHT22;8239;48.594;8.598;2024-02-16T12:59:13;19.60;59.70
16263;DHT22;8239;48.594;8.598;2024-02-16T13:01:40;19.60;59.50
16263;DHT22;8239;48.594;8.598;2024-02-16T13:04:08;19.50;59.70
16263;DHT22;8239;48.594;8.598;2024-02-16T13:06:34;19.40;60.00
16263;DHT22;8239;48.594;8.598;2024-02-16T13:09:04;19.10;59.10
16263;DHT22;8239;48.594;8.598;2024-02-16T13:11:31;18.90;61.10
16263;DHT22;8239;48.594;8.598;2024-02-16T13:13:59;18.90;61.00
16263;DHT22;8239;48.594;8.598;2024-02-16T13:16:26;18.90;61.40
16263;DHT22;8239;48.594;8.598;2024-02-16T13:18:53;18.70;60.10
16263;DHT22;8239;48.594;8.598;2024-02-16T13:21:20;18.00;60.90
16263;DHT22;8239;48.594;8.598;2024-02-16T13:23:47;17.60;63.30
16263;DHT22;8239;48.594;8.598;2024-02-16T13:26:15;17.50;65.00
16263;DHT22;8239;48.594;8.598;2024-02-16T13:28:42;17.40;64.60
16263;DHT22;8239;48.594;8.598;2024-02-16T13:31:09;17.20;63.50
16263;DHT22;8239;48.594;8.598;2024-02-16T13:33:37;17.00;64.60
16263;DHT22;8239;48.594;8.598;2024-02-16T13:36:04;16.80;65.80
16263;DHT22;8239;48.594;8.598;2024-02-16T13:38:31;16.80;65.80
16263;DHT22;8239;48.594;8.598;2024-02-16T13:40:58;16.70;66.30
16263;DHT22;8239;48.594;8.598;2024-02-16T13:43:26;16.60;67.20
16263;DHT22;8239;48.594;8.598;2024-02-16T13:45:54;16.60;67.00
16263;DHT22;8239;48.594;8.598;2024-02-16T13:48:23;16.40;68.30
16263;DHT22;8239;48.594;8.598;2024-02-16T13:50:50;16.40;68.50
16263;DHT22;8239;48.594;8.598;2024-02-16T13:53:18;16.30;68.90
16263;DHT22;8239;48.594;8.598;2024-02-16T13:55:44;16.20;69.20
16263;DHT22;8239;48.594;8.598;2024-02-16T13:58:11;16.10;69.90
16263;DHT22;8239;48.594;8.598;2024-02-16T14:00:40;16.00;70.50
16263;DHT22;8239;48.594;8.598;2024-02-16T14:03:09;15.80;71.30
16263;DHT22;8239;48.594;8.598;2024-02-16T14:05:37;15.60;71.40
16263;DHT22;8239;48.594;8.598;2024-02-16T14:08:05;15.50;71.90
16263;DHT22;8239;48.594;8.598;2024-02-16T14:10:33;15.50;73.20
16263;DHT22;8239;48.594;8.598;2024-02-16T14:13:00;15.50;73.10
16263;DHT22;8239;48.594;8.598;2024-02-16T14:15:27;15.50;73.10
16263;DHT22;8239;48.594;8.598;2024-02-16T14:17:55;15.40;72.90
16263;DHT22;8239;48.594;8.598;2024-02-16T14:20:22;15.30;73.90
16263;DHT22;8239;48.594;8.598;2024-02-16T14:22:49;15.20;73.90
16263;DHT22;8239;48.594;8.598;2024-02-16T14:25:16;15.10;74.80
16263;DHT22;8239;48.594;8.598;2024-02-16T14:27:44;15.00;75.40
16263;DHT22;8239;48.594;8.598;2024-02-16T14:30:12;14.90;76.00
16263;DHT22;8239;48.594;8.598;2024-02-16T14:32:39;14.80;76.40
16263;DHT22;8239;48.594;8.598;2024-02-16T14:35:08;14.70;76.90
16263;DHT22;8239;48.594;8.598;2024-02-16T14:37:36;14.70;77.20
16263;DHT22;8239;48.594;8.598;2024-02-16T14:40:05;14.50;77.90
16263;DHT22;8239;48.594;8.598;2024-02-16T14:42:35;14.40;78.90
16263;DHT22;8239;48.594;8.598;2024-02-16T14:45:02;14.30;80.00
16263;DHT22;8239;48.594;8.598;2024-02-16T14:47:31;14.20;80.00
16263;DHT22;8239;48.594;8.598;2024-02-16T14:49:58;14.20;80.50
16263;DHT22;8239;48.594;8.598;2024-02-16T14:52:26;14.20;80.70
16263;DHT22;8239;48.594;8.598;2024-02-16T14:54:54;14.20;81.80
16263;DHT22;8239;48.594;8.598;2024-02-16T14:57:22;14.20;81.80
16263;DHT22;8239;48.594;8.598;2024-02-16T14:59:51;14.30;82.10
16263;DHT22;8239;48.594;8.598;2024-02-16T15:02:21;14.30;82.10
16263;DHT22;8239;48.594;8.598;2024-02-16T15:04:47;14.40;82.50
16263;DHT22;8239;48.594;8.598;2024-02-16T15:07:14;14.30;82.10
16263;DHT22;8239;48.594;8.598;2024-02-16T15:09:44;14.30;82.60
16263;DHT22;8239;48.594;8.598;2024-02-16T15:12:11;14.10;82.70
16263;DHT22;8239;48.594;8.598;2024-02-16T15:14:38;14.10;83.60
16263;DHT22;8239;48.594;8.598;2024-02-16T15:17:05;14.10;84.60
16263;DHT22;8239;48.594;8.598;2024-02-16T15:19:32;14.00;86.00
16263;DHT22;8239;48.594;8.598;2024-02-16T15:21:59;13.90;87.00
16263;DHT22;8239;48.594;8.598;2024-02-16T15:24:26;14.00;86.90
16263;DHT22;8239;48.594;8.598;2024-02-16T15:26:54;14.00;88.10
16263;DHT22;8239;48.594;8.598;2024-02-16T15:29:21;14.00;89.00
16263;DHT22;8239;48.594;8.598;2024-02-16T15:31:48;14.00;88.50
16263;DHT22;8239;48.594;8.598;2024-02-16T15:34:15;14.00;89.30
16263;DHT22;8239;48.594;8.598;2024-02-16T15:36:42;13.90;89.80
16263;DHT22;8239;48.594;8.598;2024-02-16T15:39:09;13.80;90.50
16263;DHT22;8239;48.594;8.598;2024-02-16T15:41:36;13.70;91.10
16263;DHT22;8239;48.594;8.598;2024-02-16T15:44:04;13.60;91.20
16263;DHT22;8239;48.594;8.598;2024-02-16T15:46:31;13.60;91.70
16263;DHT22;8239;48.594;8.598;2024-02-16T15:48:58;13.50;92.00
16263;DHT22;8239;48.594;8.598;2024-02-16T15:51:25;13.50;92.30
16263;DHT22;8239;48.594;8.598;2024-02-16T15:53:52;13.40;92.90
16263;DHT22;8239;48.594;8.598;2024-02-16T15:56:19;13.30;93.20